1983 ABBY (1983212N06151)


On this page: IBTrACS data - Map and Plots - Positions - Intensities - Original source data

Summary

Start Jul 31
End Aug 24
Basin WP
LMI 145 kt
Sources jtwc_wp
tokyo
cma
hko
td9636
In WMO? Yes
Previous storm 1983 MISSING (NA)
Previous in basin 1983 WAYNE (WP)
Concurrent storms 1983 GIL (EP)
1983 HENRIETTE (EP)
1983 MISSING (NA)
1983 ABBY (WP)
1983 ONE-C (EP)
1983 CARMEN (WP)
1983 ISMAEL (EP)
1983 MISSING (NI)
1983 BEN (WP)
1983 MISSING (WP)
1983 ALICIA (NA)
1983 DOM (WP)
1983 BARRY (NA)
Next in basin 1983 CARMEN (WP)
Next storm 1983 ONE-C (EP)

top of page IBTrACS Data: File Access

top of page HURSAT Data: File Access

Image of storm

top of page Plots:

Map of storm track will not appear if FTP is down
Time series of cyclone Maximum Sustained Wind will not appear if FTP is down
Time series of cyclone Minimum Central Pressure will not appear if FTP is down

top of page Track Data:Position

jtwc_wp tokyo cma hko td9636
Date Lat Lon Lat Lon Lat Lon Lat Lon Lat Lon
1983-07-31 00:00:00 6.0 151.0
1983-07-31 06:00:00 6.4 150.6
1983-07-31 12:00:00 6.8 150.1
1983-07-31 18:00:00 7.2 149.6
1983-08-01 00:00:00 7.5 149.0
1983-08-01 06:00:00 7.8 148.3
1983-08-01 12:00:00 7.9 147.5
1983-08-01 18:00:00 7.7 146.6
1983-08-02 00:00:00 7.4 146.0
1983-08-02 06:00:00 7.1 146.0
1983-08-02 12:00:00 7.0 146.1
1983-08-02 18:00:00 7.4 146.0
1983-08-03 00:00:00 8.0 145.7
1983-08-03 06:00:00 8.3 145.2
1983-08-03 12:00:00 8.5 144.6
1983-08-03 18:00:00 8.6 144.0
1983-08-04 00:00:00 9.0 144.0 8.5 144.5 8.6 143.4
1983-08-04 06:00:00 9.0 143.0 8.5 143.5 8.6 142.7
1983-08-04 12:00:00 9.0 142.0 8.5 142.5 8.7 142.0
1983-08-04 18:00:00 9.0 141.4 8.8 141.5 9.0 141.3 8.9 141.3
1983-08-05 00:00:00 9.1 140.7 9.2 140.8 9.2 140.7 9.2 140.8 9.1 140.7
1983-08-05 06:00:00 9.3 140.5 9.4 140.4 9.4 140.4 9.4 140.5 9.3 140.3
1983-08-05 12:00:00 9.6 139.9 9.6 140.0 9.6 140.0 9.6 140.0 9.6 139.9
1983-08-05 18:00:00 9.9 139.4 9.9 139.4 9.8 139.5 9.9 139.5 9.8 139.4
1983-08-06 00:00:00 10.2 138.8 10.3 138.8 10.0 139.0 10.4 138.8 10.2 138.8
jtwc_wp tokyo cma hko td9636
1983-08-06 06:00:00 11.0 138.1 11.1 138.1 11.0 138.1 11.0 138.2 11.0 138.1
1983-08-06 12:00:00 11.8 137.3 11.8 137.4 11.8 137.5 11.8 137.4 11.8 137.3
1983-08-06 18:00:00 12.4 136.4 12.3 136.7 12.3 136.6 12.3 136.7 12.4 136.4
1983-08-07 00:00:00 12.8 135.8 12.9 135.8 12.3 135.9 12.8 135.8 12.8 135.8
1983-08-07 06:00:00 13.6 134.7 13.5 135.1 13.5 134.9 13.5 134.9 13.5 134.9
1983-08-07 12:00:00 14.4 133.9 14.4 134.0 14.3 134.1 14.3 134.0 14.4 133.9
1983-08-07 18:00:00 15.0 133.5 15.0 133.4 14.9 133.6 15.0 133.4 15.1 133.3
1983-08-08 00:00:00 15.8 132.8 15.8 132.7 15.7 133.0 15.7 132.9 15.8 132.8
1983-08-08 06:00:00 16.3 132.4 16.5 132.5 16.4 132.5 16.4 132.4 16.5 132.4
1983-08-08 12:00:00 17.1 132.0 17.1 132.0 17.0 132.0 17.0 131.9 17.1 132.0
1983-08-08 18:00:00 17.4 131.4 17.4 131.5 17.4 131.4 17.4 131.5 17.5 131.4
1983-08-09 00:00:00 17.8 130.8 17.8 130.8 17.8 131.0 17.8 131.0 17.8 130.8
1983-08-09 06:00:00 18.1 130.7 18.2 130.6 18.2 130.7 18.2 130.7 18.3 130.5
1983-08-09 12:00:00 18.7 130.3 18.6 130.5 18.6 130.6 18.7 130.5 18.7 130.3
1983-08-09 18:00:00 18.9 130.4 18.9 130.4 18.8 130.4 18.9 130.5 19.0 130.3
1983-08-10 00:00:00 19.2 130.4 19.2 130.4 19.1 130.4 19.0 130.4 19.2 130.4
1983-08-10 06:00:00 19.5 130.4 19.5 130.4 19.5 130.4 19.4 130.4 19.5 130.4
1983-08-10 12:00:00 19.9 130.5 19.9 130.5 19.9 130.5 19.8 130.5 19.9 130.5
1983-08-10 18:00:00 20.1 130.5 20.1 130.5 20.1 130.6 20.1 130.5 20.2 130.6
1983-08-11 00:00:00 20.6 130.7 20.5 130.7 20.5 130.7 20.3 130.6 20.6 130.7
1983-08-11 06:00:00 21.2 130.8 21.2 130.6 21.2 130.7 20.9 130.6 21.1 130.7
1983-08-11 12:00:00 21.6 130.7 21.6 130.6 21.6 130.6 21.6 130.6 21.6 130.7
1983-08-11 18:00:00 22.0 130.6 21.9 130.6 21.9 130.6 22.1 130.6 22.1 130.7
1983-08-12 00:00:00 22.5 130.7 22.5 130.5 22.5 130.6 22.5 130.7 22.5 130.7
jtwc_wp tokyo cma hko td9636
1983-08-12 06:00:00 22.9 130.8 22.9 130.8 23.0 130.8 23.0 130.8 22.9 130.9
1983-08-12 12:00:00 23.4 131.2 23.3 131.1 23.3 131.0 23.5 131.0 23.4 131.2
1983-08-12 18:00:00 23.9 131.5 24.0 131.5 23.8 131.4 24.0 131.3 24.0 131.5
1983-08-13 00:00:00 24.6 131.8 24.6 131.8 24.5 131.8 24.6 131.7 24.6 131.8
1983-08-13 06:00:00 24.9 132.2 25.0 132.2 25.1 132.1 25.1 132.3 25.0 132.2
1983-08-13 12:00:00 25.4 132.6 25.4 132.6 25.5 132.5 25.7 132.8 25.4 132.6
1983-08-13 18:00:00 26.1 133.0 25.9 132.9 26.0 133.0 26.1 133.1 26.0 133.0
1983-08-14 00:00:00 26.6 133.3 26.6 133.3 26.6 133.3 26.7 133.3 26.6 133.3
1983-08-14 06:00:00 27.2 133.5 27.1 133.5 27.2 133.4 27.2 133.4 27.1 133.4
1983-08-14 12:00:00 27.6 133.5 27.6 133.5 27.6 133.5 27.7 133.5 27.6 133.5
1983-08-14 18:00:00 28.1 133.5 28.0 133.5 28.1 133.5 28.1 133.5 28.0 133.5
1983-08-15 00:00:00 28.5 133.6 28.5 133.6 28.5 133.6 28.4 133.6 28.5 133.6
1983-08-15 06:00:00 29.1 134.1 29.0 133.9 29.1 134.0 29.0 133.8 28.9 133.9
1983-08-15 12:00:00 29.5 134.3 29.6 134.4 29.6 134.3 29.7 134.2 29.5 134.3
1983-08-15 18:00:00 30.0 134.8 30.4 134.7 30.2 135.0 30.4 134.7 30.3 134.6
1983-08-16 00:00:00 31.1 135.1 31.1 135.1 31.0 135.3 31.2 135.3 31.1 135.1
1983-08-16 06:00:00 31.8 135.8 31.9 135.8 31.8 135.8 31.9 135.9 31.9 135.8
1983-08-16 12:00:00 32.7 136.5 32.7 136.5 32.6 136.6 32.6 136.4 32.7 136.5
1983-08-16 18:00:00 33.8 137.0 33.8 137.0 33.7 137.2 33.8 137.1 33.7 136.8
1983-08-17 00:00:00 34.6 137.3 34.8 137.4 34.5 137.7 34.6 137.4 34.6 137.3
1983-08-17 06:00:00 35.1 138.1 35.0 138.2 35.0 138.2 35.1 138.2 35.2 138.2
1983-08-17 12:00:00 35.6 139.4 35.7 139.2 36.0 139.3 35.5 139.3 35.6 139.4
1983-08-17 18:00:00 36.5 140.3 36.6 140.3 36.5 140.5
1983-08-18 00:00:00 37.4 141.5 37.5 141.4 37.5 141.4
jtwc_wp tokyo cma hko td9636
1983-08-18 06:00:00 37.7 142.3 38.0 142.2 38.2 142.2
1983-08-18 12:00:00 37.9 143.3 38.2 143.0 38.4 143.0
1983-08-18 18:00:00 37.9 144.2 38.0 143.8 38.0 143.8
1983-08-19 00:00:00 38.0 144.5 37.5 144.5 37.7 144.3
1983-08-19 06:00:00 38.0 145.0 38.0 145.0 37.5 144.7
1983-08-19 12:00:00 37.7 145.7 37.5 143.7 37.3 144.9
1983-08-19 18:00:00 37.0 146.0 36.8 144.5 37.2 145.2
1983-08-20 00:00:00 36.0 146.5 35.8 145.3
1983-08-20 06:00:00 35.0 147.0 35.0 146.5
1983-08-20 12:00:00 34.3 147.5 34.0 147.0
1983-08-20 18:00:00 33.7 148.2 33.0 147.0
1983-08-21 00:00:00 33.0 149.0 32.5 148.0
1983-08-21 06:00:00 33.0 149.5 32.3 149.0
1983-08-21 12:00:00 33.0 150.0 32.0 150.0
1983-08-21 18:00:00 33.0 150.5 32.5 150.7
1983-08-22 00:00:00 33.0 151.0 33.0 151.0
1983-08-22 06:00:00 33.5 151.5 33.5 151.5
1983-08-22 12:00:00 34.0 152.0 34.0 152.0
1983-08-22 18:00:00 34.5 152.5 34.5 152.5
1983-08-23 00:00:00 35.0 153.0 35.0 153.0
1983-08-23 06:00:00 35.5 153.5 35.5 153.5
1983-08-23 12:00:00 36.0 154.0 36.0 154.0
1983-08-23 18:00:00 36.5 155.0 36.5 155.0
1983-08-24 00:00:00 37.0 156.0 37.0 156.0

top of pageTrack Data:Intensity

jtwc_wp tokyo cma hko td9636
Date Wind Pres Wind Pres Wind Pres Wind Pres Wind Pres
1983-07-31 00:00:00
1983-07-31 06:00:00
1983-07-31 12:00:00
1983-07-31 18:00:00
1983-08-01 00:00:00
1983-08-01 06:00:00
1983-08-01 12:00:00
1983-08-01 18:00:00
1983-08-02 00:00:00
1983-08-02 06:00:00
1983-08-02 12:00:00
1983-08-02 18:00:00
1983-08-03 00:00:00
1983-08-03 06:00:00
1983-08-03 12:00:00
1983-08-03 18:00:00
1983-08-04 00:00:00 1008. 19. 1008.
1983-08-04 06:00:00 1006. 23. 1006.
1983-08-04 12:00:00 1006. 23. 1006.
1983-08-04 18:00:00 1006. 23. 1004. 25. 1004.
1983-08-05 00:00:00 30. 1004. 29. 1004. 30. 1004. 30.
1983-08-05 06:00:00 30. 35. 998. 29. 1000. 30. 1002. 30.
1983-08-05 12:00:00 30. 35. 998. 39. 998. 35. 1000. 30.
1983-08-05 18:00:00 35. 35. 996. 39. 998. 40. 999. 30.
1983-08-06 00:00:00 35. 40. 996. 39. 995. 40. 996. 35.
jtwc_wp tokyo cma hko td9636
1983-08-06 06:00:00 45. 40. 990. 39. 990. 45. 991. 35.
1983-08-06 12:00:00 55. 50. 985. 49. 985. 50. 985. 55.
1983-08-06 18:00:00 65. 65. 975. 58. 976. 55. 980. 65.
1983-08-07 00:00:00 65. 70. 970. 58. 972. 65. 970. 65.
1983-08-07 06:00:00 75. 80. 965. 68. 965. 70. 965. 65.
1983-08-07 12:00:00 90. 90. 945. 78. 945. 80. 945. 90.
1983-08-07 18:00:00 115. 100. 920. 97. 930. 95. 920. 90.
1983-08-08 00:00:00 130. 100. 910. 117. 908. 110. 910. 130.
1983-08-08 06:00:00 135. 100. 910. 117. 902. 120. 900. 130.
1983-08-08 12:00:00 140. 100. 900. 117. 900. 125. 900. 140.
1983-08-08 18:00:00 145. 110. 895. 126. 888. 125. 890. 140.
1983-08-09 00:00:00 145. 120. 895. 126. 893. 125. 890. 145.
1983-08-09 06:00:00 135. 120. 900. 126. 900. 125. 900. 145.
1983-08-09 12:00:00 125. 110. 910. 117. 910. 120. 910. 125.
1983-08-09 18:00:00 120. 115. 920. 117. 920. 114. 920. 125.
1983-08-10 00:00:00 120. 110. 925. 107. 925. 105. 925. 115.
1983-08-10 06:00:00 120. 110. 925. 107. 925. 105. 925. 115.
1983-08-10 12:00:00 115. 110. 925. 107. 925. 100. 925. 115.
1983-08-10 18:00:00 110. 105. 930. 97. 930. 100. 930. 115.
1983-08-11 00:00:00 110. 100. 935. 97. 935. 100. 935. 110.
1983-08-11 06:00:00 115. 95. 935. 107. 925. 100. 925. 110.
1983-08-11 12:00:00 120. 110. 920. 107. 920. 105. 920. 125.
1983-08-11 18:00:00 120. 110. 920. 107. 920. 110. 920. 125.
1983-08-12 00:00:00 120. 110. 920. 107. 920. 110. 920. 120.
jtwc_wp tokyo cma hko td9636
1983-08-12 06:00:00 120. 110. 915. 107. 920. 110. 920. 120.
1983-08-12 12:00:00 125. 110. 915. 107. 920. 110. 915. 125.
1983-08-12 18:00:00 120. 110. 920. 107. 920. 110. 920. 125.
1983-08-13 00:00:00 115. 110. 925. 107. 920. 110. 925. 115.
1983-08-13 06:00:00 110. 100. 925. 97. 925. 105. 925. 115.
1983-08-13 12:00:00 105. 100. 930. 97. 928. 100. 930. 110.
1983-08-13 18:00:00 105. 100. 935. 97. 935. 95. 935. 110.
1983-08-14 00:00:00 110. 85. 940. 87. 940. 90. 940. 105.
1983-08-14 06:00:00 100. 85. 940. 87. 940. 85. 940. 105.
1983-08-14 12:00:00 100. 85. 945. 87. 940. 85. 945. 100.
1983-08-14 18:00:00 95. 85. 950. 78. 950. 85. 950. 100.
1983-08-15 00:00:00 90. 85. 955. 78. 950. 85. 950. 90.
1983-08-15 06:00:00 85. 85. 955. 78. 955. 85. 955. 90.
1983-08-15 12:00:00 85. 80. 955. 78. 955. 80. 960. 85.
1983-08-15 18:00:00 80. 80. 960. 78. 960. 80. 960. 85.
1983-08-16 00:00:00 75. 70. 960. 68. 965. 70. 965. 75.
1983-08-16 06:00:00 70. 70. 965. 68. 965. 70. 970. 75.
1983-08-16 12:00:00 70. 60. 970. 58. 970. 60. 970. 70.
1983-08-16 18:00:00 70. 55. 970. 58. 970. 55. 970. 70.
1983-08-17 00:00:00 60. 45. 974. 58. 970. 45. 975. 60.
1983-08-17 06:00:00 55. 40. 978. 58. 980. 40. 980. 60.
1983-08-17 12:00:00 45. 40. 984. 49. 985. 40. 985. 45.
1983-08-17 18:00:00 40. 990. 49. 990. 40. 990.
1983-08-18 00:00:00 40. 992. 49. 992. 40. 992.
jtwc_wp tokyo cma hko td9636
1983-08-18 06:00:00 40. 992. 39. 992. 40. 994.
1983-08-18 12:00:00 40. 992. 39. 994. 35. 994.
1983-08-18 18:00:00 40. 992. 39. 994. 35. 994.
1983-08-19 00:00:00 992. 39. 994. 30. 992.
1983-08-19 06:00:00 990. 39. 990. 30. 990.
1983-08-19 12:00:00 990. 39. 990. 30. 990.
1983-08-19 18:00:00 990. 39. 990. 30. 990.
1983-08-20 00:00:00 990. 39. 990.
1983-08-20 06:00:00 990. 39. 990.
1983-08-20 12:00:00 990. 39. 990.
1983-08-20 18:00:00 994. 29. 992.
1983-08-21 00:00:00 998. 29. 996.
1983-08-21 06:00:00 1000. 23. 998.
1983-08-21 12:00:00 1000. 23. 1000.
1983-08-21 18:00:00 1000. 23. 1002.
1983-08-22 00:00:00 1002. 23. 1002.
1983-08-22 06:00:00 1002. 23. 1002.
1983-08-22 12:00:00 1002. 23. 1002.
1983-08-22 18:00:00 1002. 19. 1004.
1983-08-23 00:00:00 1002. 19. 1004.
1983-08-23 06:00:00 1002. 19. 1004.
1983-08-23 12:00:00 1004. 19. 1004.
1983-08-23 18:00:00 1004. 19. 1004.
1983-08-24 00:00:00 1004. 19. 1004.

top of page Links to source data

Source Source file Format
jtwc_wp bwp051983.txt ATCF
tokyo bst_all.txt:Line=31900:ABBY:8305 JMA text table
cma CH1983BST.txt:Storm=5:Abby CMA text table
hko tc-besttrack-data.txt:Line=15818:ABBY HKO Text table
td9636 cons_worldwide_trop_cyclone_18710101-19891231-003:Line=28575 TD 9636